N605VV KAIA-KDAY
Flight info
| Callsign | N605VV |
|---|---|
| Flight time | 1h 50m |
| Altitude | 39000 |
| Route | KUTCH Q92 HANKU DSM Q19 TWAIN J80 VHP J110 CREEP |
| Aircraft | CL60/M-SBDE1E2E3FGHIJ1J4J5J7M3RWXYZ/LB1V1D1 |
Departure
| Time | 2026-05-04 21:14 |
|---|---|
| Airport | Alliance Municipal Airport (KAIA) |
Arrival
| Time | 2026-05-04 23:05 |
|---|---|
| Airport | James M. Cox Dayton International Airport (KDAY) |
| Time | Latitude | Longitude | Altitude | Speed | Heading |
|---|---|---|---|---|---|
| 2026-05-04 20:47 | 42.06159 | -102.80697 | 3930 ft | 0 kts | 88° |
| 2026-05-04 21:10 | 42.06144 | -102.80675 | 3930 ft | 5 kts | 152° |
| 2026-05-04 21:10 | 42.06097 | -102.80678 | 3930 ft | 8 kts | 216° |
| 2026-05-04 21:10 | 42.06079 | -102.80758 | 3931 ft | 10 kts | 269° |
| 2026-05-04 21:10 | 42.06077 | -102.80859 | 3933 ft | 11 kts | 269° |
| 2026-05-04 21:11 | 42.06076 | -102.80978 | 3933 ft | 14 kts | 270° |
| 2026-05-04 21:11 | 42.06075 | -102.81118 | 3933 ft | 16 kts | 269° |
| 2026-05-04 21:11 | 42.06074 | -102.81278 | 3933 ft | 18 kts | 270° |
| 2026-05-04 21:11 | 42.06073 | -102.81455 | 3933 ft | 19 kts | 269° |
| 2026-05-04 21:12 | 42.06071 | -102.81622 | 3933 ft | 14 kts | 268° |
| 2026-05-04 21:12 | 42.06068 | -102.81747 | 3933 ft | 12 kts | 257° |
| 2026-05-04 21:12 | 42.06005 | -102.81847 | 3933 ft | 15 kts | 224° |
| 2026-05-04 21:12 | 42.05933 | -102.81940 | 3933 ft | 2 kts | 224° |
| 2026-05-04 21:13 | 42.05932 | -102.81941 | 3933 ft | 0 kts | 224° |
| 2026-05-04 21:13 | 42.05917 | -102.81960 | 3933 ft | 5 kts | 223° |
| 2026-05-04 21:13 | 42.05872 | -102.81956 | 3933 ft | 9 kts | 116° |
| 2026-05-04 21:13 | 42.05870 | -102.81767 | 3933 ft | 52 kts | 89° |
| 2026-05-04 21:14 | 42.05878 | -102.80843 | 3931 ft | 140 kts | 89° |
| 2026-05-04 21:14 | 42.05848 | -102.79364 | 4451 ft | 170 kts | 86° |
| 2026-05-04 21:14 | 42.05740 | -102.77700 | 5202 ft | 196 kts | 91° |
| 2026-05-04 21:14 | 42.05456 | -102.75815 | 6090 ft | 219 kts | 99° |
| 2026-05-04 21:15 | 42.04902 | -102.73721 | 6696 ft | 258 kts | 107° |
| 2026-05-04 21:15 | 42.04419 | -102.71318 | 7630 ft | 275 kts | 97° |
| 2026-05-04 21:15 | 42.04081 | -102.68740 | 8774 ft | 286 kts | 97° |
| 2026-05-04 21:15 | 42.03730 | -102.66095 | 9966 ft | 294 kts | 97° |
| 2026-05-04 21:16 | 42.03361 | -102.63327 | 10728 ft | 319 kts | 98° |
| 2026-05-04 21:16 | 42.02953 | -102.60277 | 11424 ft | 344 kts | 98° |
| 2026-05-04 21:16 | 42.02520 | -102.57053 | 12245 ft | 362 kts | 98° |
| 2026-05-04 21:16 | 42.02068 | -102.53705 | 13182 ft | 374 kts | 98° |
| 2026-05-04 21:17 | 42.01589 | -102.50167 | 14099 ft | 386 kts | 99° |
| 2026-05-04 21:17 | 42.01104 | -102.46598 | 15157 ft | 392 kts | 99° |
| 2026-05-04 21:17 | 42.00617 | -102.43031 | 16252 ft | 395 kts | 99° |
| 2026-05-04 21:17 | 42.00119 | -102.39383 | 17287 ft | 400 kts | 100° |
| 2026-05-04 21:18 | 41.99617 | -102.35721 | 18190 ft | 406 kts | 100° |
| 2026-05-04 21:18 | 41.99108 | -102.32008 | 19091 ft | 411 kts | 101° |
| 2026-05-04 21:18 | 41.98587 | -102.28221 | 19931 ft | 417 kts | 101° |
| 2026-05-04 21:18 | 41.98056 | -102.24376 | 20762 ft | 422 kts | 101° |
| 2026-05-04 21:19 | 41.97517 | -102.20477 | 21568 ft | 427 kts | 101° |
| 2026-05-04 21:19 | 41.96969 | -102.16518 | 22325 ft | 433 kts | 101° |
| 2026-05-04 21:19 | 41.96418 | -102.12556 | 23056 ft | 438 kts | 101° |
| 2026-05-04 21:19 | 41.95854 | -102.08501 | 23807 ft | 443 kts | 101° |
| 2026-05-04 21:20 | 41.95284 | -102.04421 | 24496 ft | 448 kts | 101° |
| 2026-05-04 21:20 | 41.94705 | -102.00285 | 25212 ft | 452 kts | 101° |
| 2026-05-04 21:20 | 41.94127 | -101.96169 | 25872 ft | 457 kts | 101° |
| 2026-05-04 21:20 | 41.93535 | -101.91966 | 26505 ft | 461 kts | 101° |
| 2026-05-04 21:21 | 41.92935 | -101.87710 | 27079 ft | 466 kts | 101° |
| 2026-05-04 21:21 | 41.92335 | -101.83468 | 27659 ft | 470 kts | 101° |
| 2026-05-04 21:21 | 41.91718 | -101.79122 | 28160 ft | 475 kts | 101° |
| 2026-05-04 21:21 | 41.91102 | -101.74796 | 28672 ft | 479 kts | 101° |
| 2026-05-04 21:22 | 41.90469 | -101.70359 | 29207 ft | 482 kts | 101° |
| 2026-05-04 21:22 | 41.89836 | -101.65940 | 29668 ft | 486 kts | 101° |
| 2026-05-04 21:22 | 41.89202 | -101.61517 | 30147 ft | 489 kts | 101° |
| 2026-05-04 21:22 | 41.88558 | -101.57044 | 30610 ft | 492 kts | 101° |
| 2026-05-04 21:23 | 41.87900 | -101.52489 | 31002 ft | 496 kts | 101° |
| 2026-05-04 21:23 | 41.87246 | -101.47969 | 31363 ft | 500 kts | 101° |
| 2026-05-04 21:23 | 41.86582 | -101.43398 | 31758 ft | 502 kts | 101° |
| 2026-05-04 21:23 | 41.85915 | -101.38820 | 32095 ft | 505 kts | 101° |
| 2026-05-04 21:24 | 41.85251 | -101.34271 | 32408 ft | 508 kts | 101° |
| 2026-05-04 21:24 | 41.84580 | -101.29694 | 32744 ft | 509 kts | 102° |
| 2026-05-04 21:24 | 41.83897 | -101.25043 | 33152 ft | 509 kts | 101° |
| 2026-05-04 21:24 | 41.83207 | -101.20361 | 33602 ft | 507 kts | 102° |
| 2026-05-04 21:25 | 41.82531 | -101.15789 | 34003 ft | 506 kts | 102° |
| 2026-05-04 21:25 | 41.81842 | -101.11137 | 34408 ft | 505 kts | 102° |
| 2026-05-04 21:25 | 41.81205 | -101.06540 | 34721 ft | 505 kts | 98° |
| 2026-05-04 21:25 | 41.80915 | -101.01868 | 34988 ft | 505 kts | 90° |
| 2026-05-04 21:26 | 41.81061 | -100.97156 | 35218 ft | 506 kts | 83° |
| 2026-05-04 21:26 | 41.81392 | -100.92488 | 35425 ft | 507 kts | 83° |
| 2026-05-04 21:26 | 41.81721 | -100.87797 | 35679 ft | 508 kts | 82° |
| 2026-05-04 21:26 | 41.82050 | -100.83090 | 35891 ft | 510 kts | 82° |
| 2026-05-04 21:27 | 41.82377 | -100.78389 | 36117 ft | 510 kts | 83° |
| 2026-05-04 21:27 | 41.82703 | -100.73663 | 36325 ft | 511 kts | 82° |
| 2026-05-04 21:27 | 41.83031 | -100.68893 | 36603 ft | 512 kts | 83° |
| 2026-05-04 21:27 | 41.83355 | -100.64164 | 36883 ft | 513 kts | 82° |
| 2026-05-04 21:28 | 41.83679 | -100.59413 | 37089 ft | 514 kts | 82° |
| 2026-05-04 21:28 | 41.84001 | -100.54652 | 37345 ft | 514 kts | 82° |
| 2026-05-04 21:28 | 41.84322 | -100.49896 | 37532 ft | 516 kts | 82° |
| 2026-05-04 21:28 | 41.84643 | -100.45100 | 37760 ft | 516 kts | 82° |
| 2026-05-04 21:29 | 41.84958 | -100.40362 | 37960 ft | 517 kts | 82° |
| 2026-05-04 21:29 | 41.85278 | -100.35528 | 38128 ft | 518 kts | 82° |
| 2026-05-04 21:29 | 41.85596 | -100.30694 | 38322 ft | 518 kts | 83° |
| 2026-05-04 21:29 | 41.85903 | -100.25851 | 38474 ft | 519 kts | 84° |
| 2026-05-04 21:30 | 41.85972 | -100.21050 | 38612 ft | 522 kts | 91° |
| 2026-05-04 21:30 | 41.85651 | -100.16225 | 38779 ft | 523 kts | 98° |
| 2026-05-04 21:30 | 41.83978 | -100.06684 | 38824 ft | 529 kts | 107° |
| 2026-05-04 21:31 | 41.80986 | -99.92367 | 38818 ft | 539 kts | 107° |
| 2026-05-04 21:32 | 41.78947 | -99.82632 | 38813 ft | 545 kts | 107° |
| 2026-05-04 21:32 | 41.76891 | -99.72855 | 38822 ft | 547 kts | 107° |
| 2026-05-04 21:33 | 41.74821 | -99.63049 | 38819 ft | 547 kts | 106° |
| 2026-05-04 21:33 | 41.72755 | -99.53303 | 38820 ft | 547 kts | 107° |
| 2026-05-04 21:34 | 41.70665 | -99.43478 | 38816 ft | 547 kts | 107° |
| 2026-05-04 21:34 | 41.68585 | -99.33752 | 38816 ft | 547 kts | 107° |
| 2026-05-04 21:35 | 41.66488 | -99.23981 | 38799 ft | 547 kts | 107° |
| 2026-05-04 21:35 | 41.64384 | -99.14226 | 38794 ft | 547 kts | 107° |
| 2026-05-04 21:36 | 41.62274 | -99.04481 | 38804 ft | 548 kts | 107° |
| 2026-05-04 21:36 | 41.60154 | -98.94735 | 38814 ft | 549 kts | 107° |
| 2026-05-04 21:37 | 41.58019 | -98.84965 | 38809 ft | 549 kts | 107° |
| 2026-05-04 21:37 | 41.55876 | -98.75206 | 38803 ft | 549 kts | 107° |
| 2026-05-04 21:38 | 41.53723 | -98.65439 | 38784 ft | 549 kts | 107° |
| 2026-05-04 21:38 | 41.51557 | -98.55663 | 38786 ft | 548 kts | 107° |
| 2026-05-04 21:39 | 41.49403 | -98.45978 | 38791 ft | 548 kts | 107° |
| 2026-05-04 21:39 | 41.47217 | -98.36192 | 38780 ft | 549 kts | 107° |
| 2026-05-04 21:40 | 41.45036 | -98.26478 | 38776 ft | 549 kts | 108° |
| 2026-05-04 21:40 | 41.42838 | -98.16724 | 38773 ft | 548 kts | 108° |
| 2026-05-04 21:41 | 41.40649 | -98.07056 | 38769 ft | 549 kts | 108° |
| 2026-05-04 21:41 | 41.38428 | -97.97292 | 38774 ft | 549 kts | 107° |
| 2026-05-04 21:42 | 41.36220 | -97.87620 | 38763 ft | 549 kts | 108° |
| 2026-05-04 21:42 | 41.34094 | -97.78353 | 38763 ft | 549 kts | 107° |
| 2026-05-04 21:43 | 41.31852 | -97.68623 | 38750 ft | 549 kts | 108° |
| 2026-05-04 21:43 | 41.29620 | -97.58969 | 38757 ft | 549 kts | 108° |
| 2026-05-04 21:44 | 41.27374 | -97.49292 | 38752 ft | 550 kts | 107° |
| 2026-05-04 21:44 | 41.25114 | -97.39606 | 38739 ft | 550 kts | 107° |
| 2026-05-04 21:45 | 41.22839 | -97.29890 | 38739 ft | 550 kts | 108° |
| 2026-05-04 21:45 | 41.20568 | -97.20237 | 38733 ft | 550 kts | 108° |
| 2026-05-04 21:46 | 41.18288 | -97.10584 | 38732 ft | 550 kts | 108° |
| 2026-05-04 21:46 | 41.15992 | -97.00906 | 38729 ft | 550 kts | 108° |
| 2026-05-04 21:47 | 41.13689 | -96.91241 | 38725 ft | 550 kts | 108° |
| 2026-05-04 21:47 | 41.11382 | -96.81599 | 38728 ft | 549 kts | 108° |
| 2026-05-04 21:48 | 41.09087 | -96.72043 | 38724 ft | 548 kts | 108° |
| 2026-05-04 21:48 | 41.06774 | -96.62456 | 38720 ft | 549 kts | 108° |
| 2026-05-04 21:49 | 41.04447 | -96.52849 | 38716 ft | 549 kts | 108° |
| 2026-05-04 21:49 | 41.02109 | -96.43238 | 38699 ft | 548 kts | 108° |
| 2026-05-04 21:50 | 40.99780 | -96.33698 | 38696 ft | 547 kts | 109° |
| 2026-05-04 21:50 | 40.97426 | -96.24099 | 38692 ft | 546 kts | 108° |
| 2026-05-04 21:51 | 40.95089 | -96.14610 | 38691 ft | 546 kts | 109° |
| 2026-05-04 21:51 | 40.92724 | -96.05043 | 38690 ft | 547 kts | 109° |
| 2026-05-04 21:52 | 40.90360 | -95.95518 | 38688 ft | 547 kts | 109° |
| 2026-05-04 21:52 | 40.87986 | -95.85993 | 38689 ft | 547 kts | 109° |
| 2026-05-04 21:53 | 40.85604 | -95.76472 | 38680 ft | 548 kts | 109° |
| 2026-05-04 21:53 | 40.83189 | -95.66860 | 38677 ft | 548 kts | 109° |
| 2026-05-04 21:54 | 40.80795 | -95.57370 | 38674 ft | 549 kts | 109° |
| 2026-05-04 21:54 | 40.78390 | -95.47872 | 38674 ft | 548 kts | 109° |
| 2026-05-04 21:55 | 40.75959 | -95.38308 | 38673 ft | 548 kts | 109° |
| 2026-05-04 21:55 | 40.73550 | -95.28870 | 38674 ft | 547 kts | 109° |
| 2026-05-04 21:56 | 40.71112 | -95.19357 | 38675 ft | 547 kts | 109° |
| 2026-05-04 21:56 | 40.68679 | -95.09898 | 38674 ft | 547 kts | 109° |
| 2026-05-04 21:57 | 40.66285 | -95.00629 | 38673 ft | 547 kts | 109° |
| 2026-05-04 21:57 | 40.63826 | -94.91141 | 38674 ft | 546 kts | 109° |
| 2026-05-04 21:58 | 40.61376 | -94.81728 | 38678 ft | 546 kts | 109° |
| 2026-05-04 21:58 | 40.58905 | -94.72267 | 38681 ft | 545 kts | 109° |
| 2026-05-04 21:59 | 40.56447 | -94.62898 | 38679 ft | 544 kts | 109° |
| 2026-05-04 21:59 | 40.53976 | -94.53513 | 38678 ft | 544 kts | 109° |
| 2026-05-04 22:00 | 40.51495 | -94.44122 | 38663 ft | 544 kts | 109° |
| 2026-05-04 22:00 | 40.49010 | -94.34755 | 38661 ft | 544 kts | 110° |
| 2026-05-04 22:01 | 40.46560 | -94.25553 | 38667 ft | 543 kts | 110° |
| 2026-05-04 22:01 | 40.44060 | -94.16201 | 38673 ft | 542 kts | 110° |
| 2026-05-04 22:02 | 40.41566 | -94.06906 | 38673 ft | 543 kts | 110° |
| 2026-05-04 22:02 | 40.39056 | -93.97583 | 38672 ft | 543 kts | 110° |
| 2026-05-04 22:03 | 40.36533 | -93.88245 | 38669 ft | 542 kts | 110° |
| 2026-05-04 22:03 | 40.34021 | -93.78985 | 38658 ft | 542 kts | 109° |
| 2026-05-04 22:04 | 40.31480 | -93.69653 | 38645 ft | 542 kts | 110° |
| 2026-05-04 22:04 | 40.28959 | -93.60426 | 38649 ft | 541 kts | 110° |
| 2026-05-04 22:05 | 40.26421 | -93.51175 | 38660 ft | 541 kts | 110° |
| 2026-05-04 22:05 | 40.23871 | -93.41911 | 38653 ft | 541 kts | 109° |
| 2026-05-04 22:06 | 40.21309 | -93.32639 | 38648 ft | 541 kts | 110° |
| 2026-05-04 22:06 | 40.18761 | -93.23450 | 38652 ft | 540 kts | 110° |
| 2026-05-04 22:07 | 40.16195 | -93.14229 | 38643 ft | 541 kts | 110° |
| 2026-05-04 22:07 | 40.13623 | -93.05019 | 38641 ft | 541 kts | 110° |
| 2026-05-04 22:08 | 40.11028 | -92.95758 | 38656 ft | 540 kts | 110° |
| 2026-05-04 22:08 | 40.08453 | -92.86606 | 38642 ft | 541 kts | 110° |
| 2026-05-04 22:09 | 40.05901 | -92.77563 | 38669 ft | 538 kts | 110° |
| 2026-05-04 22:09 | 40.03308 | -92.68412 | 38682 ft | 537 kts | 110° |
| 2026-05-04 22:10 | 40.00750 | -92.59415 | 38658 ft | 536 kts | 110° |
| 2026-05-04 22:10 | 39.98165 | -92.50352 | 38678 ft | 536 kts | 110° |
| 2026-05-04 22:11 | 39.95555 | -92.41235 | 38666 ft | 535 kts | 109° |
| 2026-05-04 22:11 | 39.92961 | -92.32207 | 38656 ft | 535 kts | 110° |
| 2026-05-04 22:12 | 39.90350 | -92.23146 | 38649 ft | 534 kts | 110° |
| 2026-05-04 22:12 | 39.87811 | -92.14369 | 38649 ft | 534 kts | 110° |
| 2026-05-04 22:13 | 39.85219 | -92.05440 | 38652 ft | 533 kts | 110° |
| 2026-05-04 22:13 | 39.82597 | -91.96437 | 38670 ft | 534 kts | 110° |
| 2026-05-04 22:14 | 39.79977 | -91.87472 | 38680 ft | 532 kts | 110° |
| 2026-05-04 22:14 | 39.77331 | -91.78451 | 38674 ft | 532 kts | 110° |
| 2026-05-04 22:15 | 39.74707 | -91.69531 | 38669 ft | 530 kts | 110° |
| 2026-05-04 22:15 | 39.72073 | -91.60606 | 38675 ft | 530 kts | 110° |
| 2026-05-04 22:16 | 39.69531 | -91.51592 | 38704 ft | 528 kts | 105° |
| 2026-05-04 22:16 | 39.68211 | -91.42270 | 38695 ft | 524 kts | 91° |
| 2026-05-04 22:17 | 39.68397 | -91.32938 | 38680 ft | 518 kts | 80° |
| 2026-05-04 22:17 | 39.69328 | -91.23701 | 38670 ft | 516 kts | 79° |
| 2026-05-04 22:18 | 39.70253 | -91.14480 | 38670 ft | 516 kts | 79° |
| 2026-05-04 22:18 | 39.71171 | -91.05253 | 38679 ft | 515 kts | 79° |
| 2026-05-04 22:19 | 39.72083 | -90.96037 | 38678 ft | 514 kts | 79° |
| 2026-05-04 22:19 | 39.72983 | -90.86860 | 38676 ft | 513 kts | 79° |
| 2026-05-04 22:20 | 39.73873 | -90.77718 | 38682 ft | 512 kts | 79° |
| 2026-05-04 22:20 | 39.74757 | -90.68552 | 38674 ft | 511 kts | 79° |
| 2026-05-04 22:21 | 39.75633 | -90.59396 | 38662 ft | 511 kts | 79° |
| 2026-05-04 22:21 | 39.76496 | -90.50290 | 38682 ft | 510 kts | 79° |
| 2026-05-04 22:22 | 39.77326 | -90.41466 | 38667 ft | 510 kts | 80° |
| 2026-05-04 22:22 | 39.78179 | -90.32319 | 38693 ft | 508 kts | 81° |
| 2026-05-04 22:23 | 39.79021 | -90.23213 | 38684 ft | 508 kts | 81° |
| 2026-05-04 22:23 | 39.79851 | -90.14152 | 38675 ft | 507 kts | 81° |
| 2026-05-04 22:24 | 39.80677 | -90.05051 | 38679 ft | 506 kts | 81° |
| 2026-05-04 22:24 | 39.81489 | -89.96034 | 38683 ft | 504 kts | 81° |
| 2026-05-04 22:25 | 39.82297 | -89.86982 | 38674 ft | 503 kts | 81° |
| 2026-05-04 22:25 | 39.83084 | -89.78082 | 38691 ft | 503 kts | 82° |
| 2026-05-04 22:26 | 39.83867 | -89.69099 | 38695 ft | 503 kts | 82° |
| 2026-05-04 22:26 | 39.84070 | -89.59990 | 38670 ft | 505 kts | 88° |
| 2026-05-04 22:27 | 39.84112 | -89.51104 | 38697 ft | 504 kts | 88° |
| 2026-05-04 22:27 | 39.84150 | -89.42045 | 38686 ft | 505 kts | 88° |
| 2026-05-04 22:28 | 39.84183 | -89.32900 | 38685 ft | 504 kts | 89° |
| 2026-05-04 22:28 | 39.84209 | -89.23812 | 38667 ft | 504 kts | 89° |
| 2026-05-04 22:29 | 39.84230 | -89.14691 | 38690 ft | 504 kts | 89° |
| 2026-05-04 22:29 | 39.84244 | -89.05593 | 38706 ft | 506 kts | 89° |
| 2026-05-04 22:30 | 39.84252 | -88.96467 | 38714 ft | 506 kts | 89° |
| 2026-05-04 22:30 | 39.84252 | -88.87344 | 38716 ft | 506 kts | 89° |
| 2026-05-04 22:31 | 39.84246 | -88.78194 | 38710 ft | 505 kts | 89° |
| 2026-05-04 22:31 | 39.84232 | -88.69098 | 38706 ft | 504 kts | 89° |
| 2026-05-04 22:32 | 39.84212 | -88.59995 | 38709 ft | 504 kts | 89° |
| 2026-05-04 22:32 | 39.84184 | -88.50814 | 38693 ft | 505 kts | 89° |
| 2026-05-04 22:33 | 39.84146 | -88.41893 | 38704 ft | 504 kts | 89° |
| 2026-05-04 22:33 | 39.84100 | -88.32755 | 38695 ft | 504 kts | 89° |
| 2026-05-04 22:34 | 39.84048 | -88.23675 | 38692 ft | 503 kts | 89° |
| 2026-05-04 22:34 | 39.83991 | -88.14577 | 38695 ft | 503 kts | 89° |
| 2026-05-04 22:35 | 39.83928 | -88.05503 | 38683 ft | 504 kts | 89° |
| 2026-05-04 22:35 | 39.83857 | -87.96367 | 38696 ft | 505 kts | 89° |
| 2026-05-04 22:36 | 39.83779 | -87.87294 | 38714 ft | 503 kts | 89° |
| 2026-05-04 22:36 | 39.83695 | -87.78230 | 38705 ft | 504 kts | 89° |
| 2026-05-04 22:37 | 39.83602 | -87.69102 | 38731 ft | 504 kts | 89° |
| 2026-05-04 22:37 | 39.83503 | -87.60017 | 38705 ft | 504 kts | 89° |
| 2026-05-04 22:38 | 39.83396 | -87.50925 | 38702 ft | 504 kts | 89° |
| 2026-05-04 22:38 | 39.83283 | -87.41821 | 38695 ft | 504 kts | 89° |
| 2026-05-04 22:39 | 39.83162 | -87.32726 | 38696 ft | 503 kts | 90° |
| 2026-05-04 22:39 | 39.83034 | -87.23636 | 38692 ft | 503 kts | 90° |
| 2026-05-04 22:40 | 39.82900 | -87.14606 | 38701 ft | 503 kts | 90° |
| 2026-05-04 22:40 | 39.82757 | -87.05462 | 38724 ft | 503 kts | 90° |
| 2026-05-04 22:41 | 39.82609 | -86.96419 | 38716 ft | 503 kts | 90° |
| 2026-05-04 22:41 | 39.82452 | -86.87337 | 38724 ft | 503 kts | 90° |
| 2026-05-04 22:42 | 39.82289 | -86.78255 | 38743 ft | 502 kts | 90° |
| 2026-05-04 22:42 | 39.82118 | -86.69135 | 38745 ft | 502 kts | 90° |
| 2026-05-04 22:43 | 39.81942 | -86.60125 | 38727 ft | 502 kts | 90° |
| 2026-05-04 22:43 | 39.81850 | -86.55566 | 38304 ft | 501 kts | 90° |
| 2026-05-04 22:43 | 39.81759 | -86.51112 | 37695 ft | 495 kts | 90° |
| 2026-05-04 22:43 | 39.81666 | -86.46657 | 37096 ft | 488 kts | 90° |
| 2026-05-04 22:44 | 39.81573 | -86.42285 | 36507 ft | 482 kts | 90° |
| 2026-05-04 22:44 | 39.81482 | -86.37933 | 35939 ft | 482 kts | 90° |
| 2026-05-04 22:44 | 39.81585 | -86.33831 | 35265 ft | 482 kts | 85° |
| 2026-05-04 22:44 | 39.81854 | -86.29494 | 34620 ft | 481 kts | 85° |
| 2026-05-04 22:45 | 39.82119 | -86.25136 | 33928 ft | 482 kts | 85° |
| 2026-05-04 22:45 | 39.82637 | -86.16489 | 32686 ft | 483 kts | 85° |
| 2026-05-04 22:45 | 39.82892 | -86.12185 | 32055 ft | 484 kts | 85° |
| 2026-05-04 22:46 | 39.83147 | -86.07827 | 31416 ft | 483 kts | 85° |
| 2026-05-04 22:46 | 39.83398 | -86.03520 | 30784 ft | 478 kts | 85° |
| 2026-05-04 22:46 | 39.83644 | -85.99251 | 30143 ft | 473 kts | 85° |
| 2026-05-04 22:46 | 39.83793 | -85.96661 | 29768 ft | 469 kts | 85° |
| 2026-05-04 22:47 | 39.84030 | -85.92494 | 29167 ft | 465 kts | 85° |
| 2026-05-04 22:47 | 39.84265 | -85.88351 | 28553 ft | 460 kts | 85° |
| 2026-05-04 22:47 | 39.84496 | -85.84237 | 27954 ft | 456 kts | 85° |
| 2026-05-04 22:47 | 39.84725 | -85.80148 | 27354 ft | 453 kts | 85° |
| 2026-05-04 22:48 | 39.84951 | -85.76067 | 26756 ft | 448 kts | 85° |
| 2026-05-04 22:48 | 39.85172 | -85.72059 | 26164 ft | 445 kts | 85° |
| 2026-05-04 22:48 | 39.85388 | -85.68115 | 25588 ft | 441 kts | 85° |
| 2026-05-04 22:48 | 39.85603 | -85.64154 | 25015 ft | 436 kts | 85° |
| 2026-05-04 22:49 | 39.85815 | -85.60220 | 24435 ft | 432 kts | 85° |
| 2026-05-04 22:49 | 39.86023 | -85.56348 | 23875 ft | 428 kts | 85° |
| 2026-05-04 22:49 | 39.86229 | -85.52494 | 23307 ft | 425 kts | 85° |
| 2026-05-04 22:49 | 39.86432 | -85.48661 | 22737 ft | 421 kts | 85° |
| 2026-05-04 22:50 | 39.86631 | -85.44884 | 22195 ft | 417 kts | 85° |
| 2026-05-04 22:50 | 39.86826 | -85.41159 | 21648 ft | 415 kts | 85° |
| 2026-05-04 22:50 | 39.87019 | -85.37438 | 21099 ft | 412 kts | 85° |
| 2026-05-04 22:50 | 39.87212 | -85.33707 | 20545 ft | 409 kts | 86° |
| 2026-05-04 22:51 | 39.87400 | -85.30046 | 20011 ft | 406 kts | 86° |
| 2026-05-04 22:51 | 39.87584 | -85.26428 | 19484 ft | 404 kts | 86° |
| 2026-05-04 22:51 | 39.87769 | -85.22784 | 18947 ft | 401 kts | 86° |
| 2026-05-04 22:51 | 39.87951 | -85.19170 | 18413 ft | 399 kts | 86° |
| 2026-05-04 22:52 | 39.88130 | -85.15595 | 17887 ft | 396 kts | 86° |
| 2026-05-04 22:52 | 39.88306 | -85.12063 | 17366 ft | 393 kts | 86° |
| 2026-05-04 22:52 | 39.88481 | -85.08504 | 16846 ft | 391 kts | 86° |
| 2026-05-04 22:52 | 39.88652 | -85.05027 | 16332 ft | 389 kts | 86° |
| 2026-05-04 22:53 | 39.88823 | -85.01514 | 15815 ft | 387 kts | 86° |
| 2026-05-04 22:53 | 39.88992 | -84.98048 | 15315 ft | 385 kts | 86° |
| 2026-05-04 22:53 | 39.89159 | -84.94583 | 14806 ft | 383 kts | 86° |
| 2026-05-04 22:53 | 39.89323 | -84.91145 | 14298 ft | 381 kts | 85° |
| 2026-05-04 22:54 | 39.89485 | -84.87741 | 13803 ft | 379 kts | 85° |
| 2026-05-04 22:54 | 39.89646 | -84.84327 | 13307 ft | 377 kts | 85° |
| 2026-05-04 22:54 | 39.89807 | -84.80920 | 13055 ft | 377 kts | 85° |
| 2026-05-04 22:54 | 39.89967 | -84.77496 | 12476 ft | 376 kts | 86° |
| 2026-05-04 22:55 | 39.90124 | -84.74109 | 12000 ft | 369 kts | 86° |
| 2026-05-04 22:55 | 39.90276 | -84.70822 | 11516 ft | 364 kts | 86° |
| 2026-05-04 22:55 | 39.90427 | -84.67535 | 11045 ft | 359 kts | 86° |
| 2026-05-04 22:55 | 39.90573 | -84.64339 | 10576 ft | 355 kts | 87° |
| 2026-05-04 22:56 | 39.90877 | -84.61180 | 10099 ft | 351 kts | 78° |
| 2026-05-04 22:56 | 39.91357 | -84.58090 | 9608 ft | 340 kts | 78° |
| 2026-05-04 22:56 | 39.91817 | -84.55110 | 9196 ft | 330 kts | 78° |
| 2026-05-04 22:56 | 39.92265 | -84.52198 | 8765 ft | 328 kts | 78° |
| 2026-05-04 22:57 | 39.92708 | -84.49314 | 8332 ft | 326 kts | 79° |
| 2026-05-04 22:57 | 39.93153 | -84.46411 | 7901 ft | 321 kts | 79° |
| 2026-05-04 22:57 | 39.93583 | -84.43601 | 7490 ft | 312 kts | 79° |
| 2026-05-04 22:57 | 39.93995 | -84.40900 | 7085 ft | 303 kts | 79° |
| 2026-05-04 22:58 | 39.94403 | -84.38220 | 6680 ft | 296 kts | 80° |
| 2026-05-04 22:58 | 39.94795 | -84.35637 | 6305 ft | 289 kts | 80° |
| 2026-05-04 22:58 | 39.95380 | -84.33160 | 5918 ft | 284 kts | 61° |
| 2026-05-04 22:58 | 39.96446 | -84.31051 | 5632 ft | 270 kts | 54° |
| 2026-05-04 22:59 | 39.97485 | -84.29100 | 5331 ft | 258 kts | 54° |
| 2026-05-04 22:59 | 39.98482 | -84.27217 | 5056 ft | 247 kts | 54° |
| 2026-05-04 22:59 | 39.99445 | -84.25401 | 4780 ft | 237 kts | 55° |
| 2026-05-04 22:59 | 40.00367 | -84.23661 | 4522 ft | 228 kts | 55° |
| 2026-05-04 23:00 | 40.01196 | -84.21931 | 4265 ft | 220 kts | 68° |
| 2026-05-04 23:00 | 40.01574 | -84.20088 | 3979 ft | 207 kts | 91° |
| 2026-05-04 23:00 | 40.01467 | -84.18286 | 3723 ft | 187 kts | 113° |
| 2026-05-04 23:00 | 40.01015 | -84.16815 | 3493 ft | 161 kts | 131° |
| 2026-05-04 23:01 | 40.00396 | -84.15740 | 3325 ft | 143 kts | 147° |
| 2026-05-04 23:01 | 39.99659 | -84.14931 | 3125 ft | 134 kts | 159° |
| 2026-05-04 23:01 | 39.98851 | -84.14381 | 2966 ft | 126 kts | 171° |
| 2026-05-04 23:01 | 39.98027 | -84.14079 | 2815 ft | 122 kts | 180° |
| 2026-05-04 23:02 | 39.97199 | -84.13994 | 2651 ft | 116 kts | 190° |
| 2026-05-04 23:02 | 39.96409 | -84.14112 | 2513 ft | 114 kts | 198° |
| 2026-05-04 23:02 | 39.95646 | -84.14420 | 2364 ft | 112 kts | 206° |
| 2026-05-04 23:02 | 39.94958 | -84.14894 | 2233 ft | 112 kts | 217° |
| 2026-05-04 23:03 | 39.94377 | -84.15551 | 2091 ft | 111 kts | 227° |
| 2026-05-04 23:03 | 39.93892 | -84.16363 | 1948 ft | 112 kts | 234° |
| 2026-05-04 23:03 | 39.93453 | -84.17204 | 1801 ft | 114 kts | 234° |
| 2026-05-04 23:03 | 39.93031 | -84.18062 | 1653 ft | 112 kts | 233° |
| 2026-05-04 23:04 | 39.92577 | -84.18886 | 1490 ft | 111 kts | 232° |
| 2026-05-04 23:04 | 39.92114 | -84.19725 | 1311 ft | 114 kts | 233° |
| 2026-05-04 23:04 | 39.91658 | -84.20571 | 1163 ft | 115 kts | 235° |
| 2026-05-04 23:04 | 39.91207 | -84.21432 | 1032 ft | 114 kts | 233° |
| 2026-05-04 23:05 | 39.90794 | -84.22194 | 997 ft | 84 kts | 236° |
| 2026-05-04 23:05 | 39.90558 | -84.22634 | 994 ft | 40 kts | 235° |
| 2026-05-04 23:05 | 39.90468 | -84.22806 | 993 ft | 13 kts | 229° |
| 2026-05-04 23:05 | 39.90395 | -84.22813 | 993 ft | 3 kts | 150° |
| 2026-05-04 23:06 | 39.90366 | -84.22788 | 994 ft | 7 kts | 144° |
| 2026-05-04 23:06 | 39.90362 | -84.22723 | 995 ft | 9 kts | 55° |
| 2026-05-04 23:06 | 39.90412 | -84.22632 | 994 ft | 15 kts | 55° |
| 2026-05-04 23:06 | 39.90480 | -84.22504 | 996 ft | 18 kts | 56° |
| 2026-05-04 23:07 | 39.90564 | -84.22346 | 996 ft | 23 kts | 55° |
| 2026-05-04 23:07 | 39.90661 | -84.22161 | 996 ft | 26 kts | 55° |
| 2026-05-04 23:07 | 39.90757 | -84.21978 | 997 ft | 26 kts | 55° |
| 2026-05-04 23:07 | 39.90837 | -84.21832 | 999 ft | 14 kts | 55° |
| 2026-05-04 23:08 | 39.90860 | -84.21716 | 997 ft | 14 kts | 130° |
| 2026-05-04 23:08 | 39.90783 | -84.21617 | 997 ft | 16 kts | 122° |
| 2026-05-04 23:08 | 39.90765 | -84.21464 | 997 ft | 19 kts | 90° |
| 2026-05-04 23:08 | 39.90768 | -84.21278 | 996 ft | 19 kts | 88° |
| 2026-05-04 23:09 | 39.90771 | -84.21111 | 996 ft | 13 kts | 103° |
| 2026-05-04 23:09 | 39.90693 | -84.21030 | 996 ft | 14 kts | 153° |
| 2026-05-04 23:09 | 39.90599 | -84.20967 | 997 ft | 15 kts | 152° |
| 2026-05-04 23:09 | 39.90503 | -84.20933 | 999 ft | 13 kts | 153° |
| 2026-05-04 23:10 | 39.90481 | -84.20847 | 999 ft | 6 kts | 89° |
| 2026-05-04 23:10 | 39.90473 | -84.20833 | 999 ft | 4 kts | 179° |
| 2026-05-04 23:10 | 39.90450 | -84.20820 | 999 ft | 2 kts | 98° |
| 2026-05-04 23:10 | 39.90450 | -84.20814 | 999 ft | 0 kts | 92° |